Time;durP1;ratioP1;P1;durP2;ratioP2;P2;SDS_P1;SDS_P2;PMS_P1;PMS_P2;Temp;Humidity;BMP_temperature;BMP_pressure;BME280_temperature;BME280_humidity;BME280_pressure;Samples;Min_cycle;Max_cycle;Signal;HPM_P1;HPM_P2
2023/09/14 00:01:03;;;;;;;17.20;11.20;;;;;;;18.66;65.68;100195.16;88388;282;137971;-64
2023/09/14 00:03:05;;;;;;;21.20;13.30;;;;;;;18.65;65.61;100189.42;88605;279;24823;-63
2023/09/14 00:05:07;;;;;;;12.90;10.40;;;;;;;18.64;65.60;100185.98;88376;282;137708;-64
2023/09/14 00:07:09;;;;;;;17.10;11.60;;;;;;;18.61;66.20;100186.86;88592;281;22538;-63
2023/09/14 00:09:11;;;;;;;15.80;11.10;;;;;;;18.60;66.47;100189.45;88439;282;137950;-63
2023/09/14 00:11:13;;;;;;;16.50;11.50;;;;;;;18.60;66.36;100186.74;88489;283;22618;-63
2023/09/14 00:13:15;;;;;;;13.70;11.60;;;;;;;18.59;66.44;100179.33;88445;281;137114;-64
2023/09/14 00:15:17;;;;;;;13.40;10.80;;;;;;;18.57;66.39;100185.81;88527;281;25227;-63
2023/09/14 00:17:19;;;;;;;14.70;11.90;;;;;;;18.54;66.77;100184.59;88425;274;136608;-66
2023/09/14 00:19:23;;;;;;;14.30;11.20;;;;;;;18.56;66.64;100178.91;88609;274;24474;-68
2023/09/14 00:21:27;;;;;;;15.60;10.90;;;;;;;18.56;66.89;100181.00;88468;281;136609;-65
2023/09/14 00:23:29;;;;;;;16.90;12.30;;;;;;;18.54;66.96;100180.05;88625;282;25160;-64
2023/09/14 00:25:31;;;;;;;26.70;13.50;;;;;;;18.47;66.99;100184.15;88572;278;138180;-62
2023/09/14 00:27:32;;;;;;;16.90;12.40;;;;;;;18.44;66.97;100182.55;88681;278;24058;-62
2023/09/14 00:29:36;;;;;;;18.00;13.70;;;;;;;18.43;67.00;100177.56;88499;281;136582;-66
2023/09/14 00:31:38;;;;;;;14.80;12.00;;;;;;;18.40;67.04;100175.02;88470;279;22554;-63
2023/09/14 00:33:40;;;;;;;14.90;12.20;;;;;;;18.39;67.54;100175.75;88452;279;136996;-65
2023/09/14 00:35:45;;;;;;;19.20;11.40;;;;;;;18.35;67.72;100167.81;88599;281;22084;-67
2023/09/14 00:37:49;;;;;;;20.00;11.50;;;;;;;18.32;67.76;100167.71;88533;274;136350;-64
2023/09/14 00:39:51;;;;;;;13.30;10.60;;;;;;;18.27;68.50;100164.43;88475;282;24064;-65
2023/09/14 00:41:52;;;;;;;18.00;11.20;;;;;;;18.22;68.74;100160.80;88453;282;136523;-66
2023/09/14 00:43:54;;;;;;;23.70;12.80;;;;;;;18.20;69.12;100163.04;88588;281;24017;-67
2023/09/14 00:45:56;;;;;;;16.90;11.80;;;;;;;18.15;69.39;100164.81;88623;281;136493;-63
2023/09/14 00:48:02;;;;;;;19.70;12.70;;;;;;;18.08;69.54;100163.42;88705;281;22543;-63
2023/09/14 00:50:06;;;;;;;13.40;10.90;;;;;;;18.07;69.47;100165.60;88790;282;23120;-59
2023/09/14 00:52:10;;;;;;;17.20;12.60;;;;;;;18.07;69.55;100162.04;88567;275;137010;-65
2023/09/14 00:54:12;;;;;;;16.90;11.10;;;;;;;17.98;69.54;100146.55;88712;279;22541;-63
2023/09/14 00:56:14;;;;;;;17.20;12.50;;;;;;;18.00;69.70;100155.23;88483;278;138279;-63
2023/09/14 00:58:16;;;;;;;14.70;13.20;;;;;;;17.97;69.78;100149.23;88554;274;24085;-64
2023/09/14 01:00:20;;;;;;;17.50;12.70;;;;;;;17.96;69.94;100145.65;88356;281;136610;-63
2023/09/14 01:02:24;;;;;;;18.70;12.00;;;;;;;17.97;69.69;100144.88;88537;282;22546;-63
2023/09/14 01:04:29;;;;;;;16.50;11.00;;;;;;;17.95;70.21;100150.13;88471;279;139855;-65
2023/09/14 01:06:32;;;;;;;17.30;11.50;;;;;;;17.93;70.04;100143.98;88654;279;25174;-66
2023/09/14 01:08:34;;;;;;;19.30;11.80;;;;;;;17.86;70.11;100143.85;88535;281;136671;-64
2023/09/14 01:10:36;;;;;;;13.00;10.00;;;;;;;17.85;70.25;100144.48;88756;281;22526;-62
2023/09/14 01:12:39;;;;;;;16.80;11.60;;;;;;;17.77;71.00;100137.45;88449;282;136651;-63
2023/09/14 01:14:51;;;;;;;14.00;10.90;;;;;;;17.80;70.70;100138.96;88673;275;22037;-63
2023/09/14 01:17:05;;;;;;;15.40;11.80;;;;;;;17.71;71.43;100141.45;88409;281;136486;-64
2023/09/14 01:19:26;;;;;;;17.70;11.70;;;;;;;17.64;72.14;100138.30;88645;277;22530;-64
2023/09/14 01:21:53;;;;;;;20.00;10.20;;;;;;;17.64;72.21;100137.15;88572;275;136447;-64
2023/09/14 01:24:09;;;;;;;21.80;11.60;;;;;;;17.59;72.47;100136.67;88461;275;23831;-62
2023/09/14 01:26:12;;;;;;;14.70;11.00;;;;;;;17.55;72.56;100141.61;88564;278;23749;-64
2023/09/14 01:28:14;;;;;;;16.00;10.00;;;;;;;17.52;72.69;100141.17;88354;276;138045;-64
2023/09/14 01:30:16;;;;;;;14.70;9.70;;;;;;;17.53;72.63;100148.24;88704;281;22701;-67
2023/09/14 01:32:17;;;;;;;15.60;10.60;;;;;;;17.56;72.53;100144.77;88378;275;137024;-64
2023/09/14 01:34:19;;;;;;;18.20;11.40;;;;;;;17.52;72.65;100146.95;88616;277;25118;-65
2023/09/14 01:36:47;;;;;;;15.10;10.80;;;;;;;17.47;73.01;100142.70;88459;281;136500;-63
2023/09/14 01:38:53;;;;;;;17.30;11.30;;;;;;;17.44;73.19;100145.19;88559;282;23875;-63
2023/09/14 01:40:56;;;;;;;17.40;9.80;;;;;;;17.42;73.25;100145.98;88361;283;136519;-62
2023/09/14 01:42:58;;;;;;;12.50;11.20;;;;;;;17.41;73.24;100143.17;88573;275;25296;-62
2023/09/14 01:45:02;;;;;;;16.40;11.20;;;;;;;17.38;73.39;100140.88;88424;280;136789;-62
2023/09/14 01:47:04;;;;;;;17.00;10.80;;;;;;;17.38;73.33;100134.55;88717;273;22562;-63
2023/09/14 01:49:06;;;;;;;18.70;11.40;;;;;;;17.37;73.35;100132.69;88588;282;136986;-63
2023/09/14 01:51:07;;;;;;;17.90;10.90;;;;;;;17.37;73.70;100129.88;88483;279;22701;-62
2023/09/14 01:53:11;;;;;;;17.60;10.70;;;;;;;17.39;73.61;100130.58;88420;282;137315;-65
2023/09/14 01:55:13;;;;;;;16.60;11.30;;;;;;;17.41;73.48;100129.91;88612;282;22523;-62
2023/09/14 01:57:15;;;;;;;13.70;10.80;;;;;;;17.43;73.41;100128.06;88289;276;137412;-62
2023/09/14 01:59:17;;;;;;;14.80;11.70;;;;;;;17.44;73.61;100122.97;88560;274;22621;-60
2023/09/14 02:01:19;;;;;;;17.20;13.00;;;;;;;17.42;73.50;100117.54;88416;275;137968;-63
2023/09/14 02:03:21;;;;;;;18.40;11.40;;;;;;;17.43;73.31;100112.42;88612;275;22616;-66
2023/09/14 02:05:23;;;;;;;14.10;11.70;;;;;;;17.44;73.05;100114.51;88442;281;136536;-62
2023/09/14 02:07:25;;;;;;;14.90;10.40;;;;;;;17.37;73.35;100114.74;88445;283;22524;-64
2023/09/14 02:09:27;;;;;;;20.00;11.50;;;;;;;17.33;73.47;100113.00;88426;281;136921;-61
2023/09/14 02:11:29;;;;;;;18.20;10.90;;;;;;;17.32;73.67;100107.81;88518;278;22954;-61
2023/09/14 02:13:30;;;;;;;19.80;11.10;;;;;;;17.27;73.86;100110.73;88480;281;136547;-63
2023/09/14 02:15:33;;;;;;;17.30;11.10;;;;;;;17.23;74.41;100113.29;88530;281;24018;-59
2023/09/14 02:17:34;;;;;;;12.70;9.40;;;;;;;17.19;74.75;100112.44;88490;273;138822;-64
2023/09/14 02:19:36;;;;;;;12.50;10.50;;;;;;;17.15;74.91;100117.04;88551;274;24059;-63
2023/09/14 02:21:38;;;;;;;16.50;10.50;;;;;;;17.13;74.68;100110.33;88384;281;138637;-64
2023/09/14 02:23:40;;;;;;;13.70;9.30;;;;;;;17.13;74.51;100099.83;88568;282;22558;-62
2023/09/14 02:25:42;;;;;;;11.90;10.10;;;;;;;17.05;75.25;100103.75;88401;277;137252;-63
2023/09/14 02:27:44;;;;;;;18.30;10.60;;;;;;;16.98;75.63;100106.55;89438;280;24031;-63
2023/09/14 02:29:47;;;;;;;15.00;10.90;;;;;;;16.94;75.51;100103.94;88500;281;136612;-62
2023/09/14 02:31:49;;;;;;;13.90;10.10;;;;;;;16.90;75.52;100105.33;88597;281;24260;-65
2023/09/14 02:33:51;;;;;;;15.90;10.10;;;;;;;16.92;75.51;100106.09;88481;275;136188;-61
2023/09/14 02:35:53;;;;;;;10.30;9.00;;;;;;;16.91;75.31;100112.38;88565;274;22543;-61
2023/09/14 02:37:57;;;;;;;14.70;9.80;;;;;;;16.87;75.40;100109.98;88646;282;136670;-66
2023/09/14 02:40:00;;;;;;;13.60;9.90;;;;;;;16.88;75.47;100111.17;88529;274;22557;-61
2023/09/14 02:42:03;;;;;;;14.90;10.30;;;;;;;16.91;75.34;100113.94;88512;282;24026;-65
2023/09/14 02:44:06;;;;;;;18.30;10.00;;;;;;;16.91;75.40;100118.90;88580;275;137536;-61
2023/09/14 02:46:08;;;;;;;9.60;8.70;;;;;;;16.90;75.51;100127.21;88577;273;22865;-62
2023/09/14 02:48:10;;;;;;;16.70;10.10;;;;;;;16.87;75.47;100127.09;88609;281;137901;-63
2023/09/14 02:50:12;;;;;;;17.20;10.20;;;;;;;16.82;75.82;100131.77;88402;276;25224;-61
2023/09/14 02:52:14;;;;;;;13.90;9.90;;;;;;;16.77;75.93;100128.29;89191;279;137640;-61
2023/09/14 02:54:16;;;;;;;13.90;10.50;;;;;;;16.72;76.28;100129.20;88414;275;22553;-61
2023/09/14 02:56:17;;;;;;;17.60;10.80;;;;;;;16.68;76.46;100128.14;88432;282;136880;-63
2023/09/14 02:58:19;;;;;;;21.90;11.60;;;;;;;16.64;76.64;100126.97;88521;282;22603;-64
2023/09/14 03:00:21;;;;;;;12.90;10.50;;;;;;;16.61;76.86;100129.27;88407;282;138613;-61
2023/09/14 03:02:24;;;;;;;11.80;9.30;;;;;;;16.59;76.89;100125.98;88564;282;22538;-64
2023/09/14 03:04:26;;;;;;;10.70;9.50;;;;;;;16.55;77.28;100119.39;88313;282;137419;-65
2023/09/14 03:06:28;;;;;;;13.10;10.40;;;;;;;16.52;77.32;100121.17;88460;275;22587;-63
2023/09/14 03:08:31;;;;;;;18.20;11.20;;;;;;;16.49;77.72;100121.67;88315;281;137077;-61
2023/09/14 03:10:33;;;;;;;11.40;9.50;;;;;;;16.46;77.94;100120.70;88805;274;23241;-60
2023/09/14 03:12:36;;;;;;;17.90;10.40;;;;;;;16.45;78.09;100122.48;88389;282;137061;-61
2023/09/14 03:14:38;;;;;;;10.90;9.60;;;;;;;16.43;78.46;100123.05;88582;281;24059;-70
2023/09/14 03:16:40;;;;;;;15.40;9.60;;;;;;;16.42;78.68;100123.12;88319;281;136989;-69
2023/09/14 03:18:42;;;;;;;12.20;9.50;;;;;;;16.39;78.85;100128.75;88354;284;25304;-71
2023/09/14 03:20:49;;;;;;;15.60;9.80;;;;;;;16.36;79.07;100129.38;88239;275;136499;-69
2023/09/14 03:22:53;;;;;;;18.20;9.60;;;;;;;16.31;79.40;100126.14;88380;282;23354;-72
2023/09/14 03:24:55;;;;;;;13.20;10.70;;;;;;;16.29;79.78;100130.77;88354;282;136518;-69
2023/09/14 03:26:57;;;;;;;13.30;10.20;;;;;;;16.27;79.87;100130.43;88528;282;22527;-70
2023/09/14 03:29:01;;;;;;;15.90;9.70;;;;;;;16.27;80.32;100132.04;88442;275;137156;-71
2023/09/14 03:31:03;;;;;;;12.30;9.70;;;;;;;16.24;81.08;100130.36;88506;279;22780;-68
2023/09/14 03:33:05;;;;;;;13.50;9.20;;;;;;;16.21;81.53;100134.16;88295;282;136912;-68
2023/09/14 03:35:06;;;;;;;15.00;10.20;;;;;;;16.18;81.74;100132.56;88348;279;22542;-70
2023/09/14 03:37:08;;;;;;;11.90;9.30;;;;;;;16.10;82.01;100125.44;87797;275;583830;-69
2023/09/14 03:39:12;;;;;;;21.80;10.10;;;;;;;16.13;82.50;100129.14;88616;275;25180;-69
2023/09/14 03:41:14;;;;;;;14.10;9.60;;;;;;;16.12;83.00;100128.80;88536;281;137151;-71
2023/09/14 03:43:16;;;;;;;11.70;9.50;;;;;;;16.13;82.83;100133.75;88450;282;24015;-70
2023/09/14 03:45:19;;;;;;;13.60;10.30;;;;;;;16.10;83.05;100136.80;88418;282;137877;-69
2023/09/14 03:47:22;;;;;;;18.50;9.70;;;;;;;16.15;82.80;100139.34;88588;282;22515;-69
2023/09/14 03:49:24;;;;;;;14.60;9.50;;;;;;;16.19;82.78;100138.30;88507;282;136619;-71
2023/09/14 03:51:28;;;;;;;15.70;10.80;;;;;;;16.24;82.26;100138.02;88489;283;22715;-71
2023/09/14 03:53:31;;;;;;;15.10;10.10;;;;;;;16.27;82.11;100137.91;88559;281;136484;-71
2023/09/14 03:55:38;;;;;;;11.90;9.70;;;;;;;16.33;81.67;100141.30;88721;282;22536;-70
2023/09/14 03:57:47;;;;;;;14.90;10.70;;;;;;;16.33;81.89;100145.80;88744;281;136315;-71
2023/09/14 03:59:51;;;;;;;12.10;10.10;;;;;;;16.29;82.05;100141.58;88648;282;22619;-72
2023/09/14 04:01:54;;;;;;;15.40;10.70;;;;;;;16.28;82.04;100139.19;88498;281;137491;-69
2023/09/14 04:03:56;;;;;;;17.50;10.50;;;;;;;16.32;81.90;100140.36;88478;274;22813;-70
2023/09/14 04:05:59;;;;;;;13.90;10.20;;;;;;;16.29;81.61;100124.90;88146;275;136979;-70
2023/09/14 04:08:02;;;;;;;16.60;10.20;;;;;;;16.40;81.80;100140.52;88419;275;22542;-69
2023/09/14 04:10:06;;;;;;;11.50;10.30;;;;;;;16.38;81.93;100139.85;88344;275;22547;-70
2023/09/14 04:12:08;;;;;;;19.50;10.10;;;;;;;16.36;81.89;100145.35;88345;277;138705;-70
2023/09/14 04:14:10;;;;;;;15.40;11.30;;;;;;;16.40;81.70;100146.69;88300;275;25198;-70
2023/09/14 04:16:12;;;;;;;13.10;9.40;;;;;;;16.41;81.75;100143.58;88259;274;138277;-69
2023/09/14 04:18:17;;;;;;;18.60;9.40;;;;;;;16.46;81.40;100143.08;88329;280;22545;-71
2023/09/14 04:20:22;;;;;;;12.00;9.60;;;;;;;16.51;81.17;100142.80;88308;275;136977;-70
2023/09/14 04:22:24;;;;;;;16.60;11.00;;;;;;;16.53;81.19;100146.67;88560;275;22631;-70
2023/09/14 04:24:26;;;;;;;19.60;10.20;;;;;;;16.51;81.22;100140.02;88348;279;136221;-70
2023/09/14 04:26:28;;;;;;;11.50;9.30;;;;;;;16.50;81.06;100142.67;88202;275;22537;-70
2023/09/14 04:28:30;;;;;;;13.30;10.60;;;;;;;16.47;80.84;100129.54;88865;282;135655;-71
2023/09/14 04:30:38;;;;;;;13.80;9.50;;;;;;;16.55;80.59;100136.93;89102;277;22539;-68
2023/09/14 04:32:40;;;;;;;15.20;9.80;;;;;;;16.53;80.56;100132.11;89226;278;138004;-69
2023/09/14 04:34:42;;;;;;;12.40;9.30;;;;;;;16.59;80.28;100134.71;89281;280;22535;-70
2023/09/14 04:36:45;;;;;;;14.70;9.30;;;;;;;16.64;80.26;100139.02;89263;282;137058;-71
2023/09/14 04:38:47;;;;;;;16.00;11.10;;;;;;;16.67;80.41;100140.75;88841;285;22549;-72
2023/09/14 04:40:49;;;;;;;15.00;9.50;;;;;;;16.69;80.11;100138.73;88375;275;137415;-71
2023/09/14 04:42:51;;;;;;;11.10;8.50;;;;;;;16.91;80.23;100140.15;88500;278;24096;-69
2023/09/14 04:44:53;;;;;;;14.70;11.30;;;;;;;17.29;79.58;100135.58;88168;275;136792;-67
2023/09/14 04:46:55;;;;;;;13.60;10.60;;;;;;;17.76;78.20;100133.83;88571;279;22618;-75
2023/09/14 04:48:57;;;;;;;17.40;9.00;;;;;;;18.32;76.04;100132.78;88337;274;137714;-72
2023/09/14 04:50:59;;;;;;;12.90;9.40;;;;;;;18.93;73.07;100138.38;88359;274;25152;-71
2023/09/14 04:53:01;;;;;;;11.60;9.10;;;;;;;19.43;70.41;100139.92;88050;283;138132;-73
2023/09/14 04:55:04;;;;;;;12.00;9.30;;;;;;;19.92;67.49;100139.85;88285;282;26232;-74
2023/09/14 04:57:06;;;;;;;13.60;9.20;;;;;;;20.29;64.71;100136.56;88841;282;136650;-71
2023/09/14 04:59:08;;;;;;;20.60;9.70;;;;;;;20.48;63.18;100136.17;88204;283;25109;-73
2023/09/14 05:01:09;;;;;;;15.80;9.50;;;;;;;20.57;62.49;100136.79;88265;282;136380;-78
2023/09/14 05:03:11;;;;;;;13.00;8.60;;;;;;;20.70;61.70;100132.20;88308;275;24061;-72
2023/09/14 05:05:13;;;;;;;9.90;8.80;;;;;;;20.89;60.89;100135.67;88228;282;137144;-74
2023/09/14 05:07:15;;;;;;;17.00;9.10;;;;;;;20.86;60.09;100133.88;88539;274;22625;-71
2023/09/14 05:09:17;;;;;;;11.20;9.20;;;;;;;20.63;60.17;100129.00;88312;282;137185;-73
2023/09/14 05:11:19;;;;;;;16.70;9.10;;;;;;;20.28;61.58;100133.91;88391;275;24954;-73
2023/09/14 05:13:21;;;;;;;18.10;10.10;;;;;;;19.97;62.58;100130.16;88372;274;138176;-71
2023/09/14 05:15:23;;;;;;;19.50;10.30;;;;;;;19.79;63.44;100129.80;88521;275;23908;-76
2023/09/14 05:17:26;;;;;;;12.10;9.30;;;;;;;19.84;63.89;100128.67;88303;275;135988;-75
2023/09/14 05:19:29;;;;;;;11.80;8.90;;;;;;;19.87;63.62;100128.21;88489;282;22532;-72
2023/09/14 05:21:31;;;;;;;16.10;9.10;;;;;;;19.69;63.47;100119.09;88432;275;136265;-71
2023/09/14 05:23:33;;;;;;;12.70;9.80;;;;;;;19.53;64.58;100134.53;88555;275;27300;-74
2023/09/14 05:25:36;;;;;;;15.10;9.80;;;;;;;19.51;65.16;100130.50;88279;281;137757;-70
2023/09/14 05:27:39;;;;;;;27.90;10.60;;;;;;;19.66;65.55;100124.51;88338;278;22540;-75
2023/09/14 05:29:43;;;;;;;18.70;10.20;;;;;;;19.89;64.73;100126.73;88441;275;138012;-73
2023/09/14 05:31:45;;;;;;;15.50;9.60;;;;;;;20.05;63.52;100128.94;90172;275;22530;-79
2023/09/14 05:33:47;;;;;;;15.10;8.70;;;;;;;20.29;63.18;100132.19;88286;275;135972;-76
2023/09/14 05:35:50;;;;;;;12.30;9.60;;;;;;;20.70;62.03;100130.73;88462;275;25083;-77
2023/09/14 05:37:53;;;;;;;15.00;9.00;;;;;;;21.14;60.28;100133.59;88358;278;138778;-77
2023/09/14 05:39:56;;;;;;;11.90;8.80;;;;;;;21.55;58.76;100128.58;88577;275;22601;-75
2023/09/14 05:41:58;;;;;;;13.70;9.50;;;;;;;22.02;56.76;100128.58;88235;278;136392;-74
2023/09/14 05:44:05;;;;;;;13.90;8.40;;;;;;;22.46;54.74;100130.15;88509;281;22557;-79
2023/09/14 05:46:07;;;;;;;10.50;8.20;;;;;;;22.78;53.11;100127.01;88275;282;23274;-76
2023/09/14 05:48:09;;;;;;;35.60;9.60;;;;;;;23.00;52.19;100122.13;88245;275;137635;-74
2023/09/14 05:50:12;;;;;;;18.20;10.30;;;;;;;23.20;52.13;100120.13;88477;278;25127;-73
2023/09/14 05:52:16;;;;;;;12.80;9.20;;;;;;;23.41;50.12;100116.45;88355;276;137126;-78
2023/09/14 05:54:19;;;;;;;16.70;8.80;;;;;;;23.35;49.71;100112.89;88567;279;22626;-71
2023/09/14 05:56:22;;;;;;;12.70;9.70;;;;;;;23.30;50.52;100113.40;88190;280;136348;-77
2023/09/14 05:58:24;;;;;;;11.90;8.60;;;;;;;23.39;49.05;100117.17;88458;283;22532;-75
2023/09/14 06:00:26;;;;;;;11.60;9.20;;;;;;;23.51;49.16;100120.91;88347;274;136589;-79
2023/09/14 06:02:29;;;;;;;12.20;8.90;;;;;;;23.74;48.63;100119.12;88500;277;24173;-80
2023/09/14 06:04:30;;;;;;;14.30;8.80;;;;;;;24.04;48.11;100115.08;88591;281;138219;-76
2023/09/14 06:06:33;;;;;;;16.20;10.20;;;;;;;24.37;46.22;100117.75;88936;274;23851;-78
2023/09/14 06:08:35;;;;;;;11.10;8.50;;;;;;;24.43;45.69;100120.48;88471;281;136496;-80
2023/09/14 06:10:37;;;;;;;13.30;9.20;;;;;;;24.34;45.26;100121.31;88632;274;22630;-72
2023/09/14 06:12:40;;;;;;;13.20;7.80;;;;;;;24.26;45.85;100117.95;88382;274;136202;-79
2023/09/14 06:14:42;;;;;;;20.90;9.00;;;;;;;24.37;45.93;100114.64;88368;277;22644;-74
2023/09/14 06:16:43;;;;;;;16.70;10.00;;;;;;;24.64;45.57;100110.39;88238;282;136310;-72
2023/09/14 06:18:46;;;;;;;10.20;8.70;;;;;;;24.96;45.38;100107.66;88396;282;24036;-82
2023/09/14 06:20:48;;;;;;;9.90;8.30;;;;;;;25.30;43.83;100108.96;88308;279;136061;-77
2023/09/14 06:22:50;;;;;;;12.50;9.40;;;;;;;25.41;43.06;100114.83;88489;273;23473;-73
2023/09/14 06:24:52;;;;;;;14.70;8.40;;;;;;;25.39;43.25;100108.73;88313;278;136964;-79
2023/09/14 06:26:55;;;;;;;13.60;8.80;;;;;;;25.51;43.30;100107.73;88367;275;22599;-75
2023/09/14 06:28:57;;;;;;;9.10;8.20;;;;;;;25.73;42.84;100100.46;88263;279;136620;-74
2023/09/14 06:31:01;;;;;;;13.50;9.20;;;;;;;25.97;42.32;100098.88;88850;279;23749;-73
2023/09/14 06:33:04;;;;;;;10.00;8.80;;;;;;;26.10;42.16;100098.09;88402;276;136347;-73
2023/09/14 06:35:07;;;;;;;14.00;8.80;;;;;;;26.22;41.75;100095.71;88425;279;26267;-75
2023/09/14 06:37:08;;;;;;;14.10;8.40;;;;;;;26.21;41.55;100092.15;88574;278;137277;-77
2023/09/14 06:39:12;;;;;;;11.10;8.80;;;;;;;26.04;41.45;100094.02;88515;274;22815;-77
2023/09/14 06:41:15;;;;;;;13.10;8.40;;;;;;;25.85;42.32;100097.73;88465;274;136251;-76
2023/09/14 06:43:17;;;;;;;13.70;8.40;;;;;;;25.52;42.83;100088.27;88500;274;22520;-73
2023/09/14 06:45:19;;;;;;;11.10;8.60;;;;;;;25.28;43.55;100105.64;88199;275;136541;-75
2023/09/14 06:47:21;;;;;;;13.30;8.40;;;;;;;24.94;44.36;100105.44;88450;278;22523;-73
2023/09/14 06:49:23;;;;;;;10.80;8.60;;;;;;;24.61;44.94;100109.48;88237;274;136326;-74
2023/09/14 06:51:25;;;;;;;16.10;9.70;;;;;;;24.25;46.13;100111.03;88414;274;24022;-75
2023/09/14 06:53:27;;;;;;;16.10;9.10;;;;;;;23.89;46.64;100106.19;89018;274;137227;-80
2023/09/14 06:55:29;;;;;;;11.20;8.50;;;;;;;23.53;47.81;100107.31;88589;274;25080;-72
2023/09/14 06:57:33;;;;;;;15.00;8.00;;;;;;;23.25;48.60;100105.42;88257;276;137417;-76
2023/09/14 06:59:35;;;;;;;12.10;9.40;;;;;;;23.13;49.28;100104.77;88498;274;22513;-75
2023/09/14 07:01:37;;;;;;;13.20;8.70;;;;;;;23.14;49.36;100103.57;88369;282;136488;-71
2023/09/14 07:03:39;;;;;;;10.70;8.50;;;;;;;23.12;49.93;100105.48;88591;274;22533;-67
2023/09/14 07:05:41;;;;;;;14.50;8.40;;;;;;;23.11;50.12;100102.44;88407;278;136320;-82
2023/09/14 07:07:43;;;;;;;14.10;8.90;;;;;;;23.07;50.08;100102.40;88608;281;24011;-74
2023/09/14 07:09:45;;;;;;;16.90;9.00;;;;;;;22.96;50.53;100099.30;88391;274;137356;-74
2023/09/14 07:11:47;;;;;;;12.30;8.60;;;;;;;22.87;51.08;100098.13;88677;273;22672;-72
2023/09/14 07:13:50;;;;;;;9.90;8.00;;;;;;;22.78;51.47;100101.30;88831;274;136792;-74
2023/09/14 07:15:52;;;;;;;15.70;10.00;;;;;;;22.73;51.94;100098.60;88670;274;25632;-79
2023/09/14 07:17:54;;;;;;;11.90;8.80;;;;;;;22.77;52.16;100100.23;88422;278;136543;-73
2023/09/14 07:19:57;;;;;;;15.30;8.70;;;;;;;22.94;51.79;100099.69;88548;275;25084;-74
2023/09/14 07:21:59;;;;;;;9.40;8.60;;;;;;;22.98;52.34;100094.79;88380;274;137275;-73
2023/09/14 07:24:06;;;;;;;10.90;8.80;;;;;;;23.01;52.57;100097.05;88515;275;22562;-77
2023/09/14 07:26:09;;;;;;;10.60;8.20;;;;;;;22.94;52.58;100087.08;89044;283;24031;-77
2023/09/14 07:28:12;;;;;;;15.00;8.40;;;;;;;22.94;52.80;100098.27;88572;282;136487;-86
2023/09/14 07:30:14;;;;;;;18.00;8.70;;;;;;;22.93;53.28;100100.55;88683;275;25083;-79
2023/09/14 07:32:18;;;;;;;13.00;8.80;;;;;;;22.94;53.32;100094.90;88617;274;136411;-80
2023/09/14 07:34:20;;;;;;;19.00;8.80;;;;;;;22.93;53.66;100092.40;88540;278;25121;-87
2023/09/14 07:38:53;;;;;;;17.90;9.20;;;;;;;22.85;53.76;100093.41;87314;297;602852;-80
2023/09/14 07:40:55;;;;;;;9.90;7.50;;;;;;;22.83;53.73;100091.08;88302;280;135758;-75
2023/09/14 07:42:57;;;;;;;12.40;7.30;;;;;;;22.81;54.52;100097.66;88628;286;25165;-75
2023/09/14 07:45:00;;;;;;;10.60;7.80;;;;;;;22.79;54.53;100099.02;88664;290;135346;-78
2023/09/14 07:47:02;;;;;;;10.10;7.90;;;;;;;22.74;54.57;100097.02;89117;290;22542;-73
2023/09/14 07:49:04;;;;;;;12.50;7.70;;;;;;;22.71;55.07;100089.14;88984;284;135462;-70
2023/09/14 07:51:06;;;;;;;10.70;7.70;;;;;;;22.69;55.31;100080.20;88711;290;24145;-73
2023/09/14 07:53:10;;;;;;;9.40;7.20;;;;;;;22.84;55.39;100089.89;87762;289;722721;-70
2023/09/14 07:55:13;;;;;;;10.70;7.50;;;;;;;22.95;54.95;100086.75;88368;289;24046;-70
2023/09/14 07:57:15;;;;;;;10.80;7.10;;;;;;;23.01;55.17;100085.20;88387;289;135796;-71
2023/09/14 07:59:17;;;;;;;11.70;7.20;;;;;;;23.08;55.23;100084.95;88309;290;22549;-71
2023/09/14 08:01:19;;;;;;;11.70;7.90;;;;;;;23.16;54.89;100084.31;88140;288;135969;-71
2023/09/14 08:03:21;;;;;;;10.10;6.90;;;;;;;23.18;54.94;100085.27;88146;289;23894;-69
2023/09/14 08:05:23;;;;;;;9.60;7.70;;;;;;;23.19;54.87;100082.28;88158;282;136127;-68
2023/09/14 08:07:27;;;;;;;11.30;7.10;;;;;;;23.18;55.34;100075.16;88380;278;25297;-68
2023/09/14 08:09:29;;;;;;;12.20;7.30;;;;;;;23.20;55.19;100078.86;88292;285;135730;-71
2023/09/14 08:11:34;;;;;;;11.60;7.00;;;;;;;23.23;55.04;100076.18;88284;285;26109;-74
2023/09/14 08:13:36;;;;;;;10.70;7.20;;;;;;;23.24;54.84;100075.27;88166;285;135945;-72
2023/09/14 08:15:40;;;;;;;11.40;7.10;;;;;;;23.22;54.76;100078.32;88296;284;24017;-72
2023/09/14 08:17:43;;;;;;;9.50;7.00;;;;;;;23.20;54.82;100081.95;88232;284;136436;-74
2023/09/14 08:19:45;;;;;;;11.20;7.40;;;;;;;23.25;55.02;100078.67;88323;284;22533;-76
2023/09/14 08:21:47;;;;;;;8.30;6.50;;;;;;;23.34;54.91;100075.36;88268;284;135705;-70
2023/09/14 08:23:49;;;;;;;14.40;7.50;;;;;;;23.41;54.62;100071.79;88353;284;23285;-69
2023/09/14 08:25:50;;;;;;;10.80;6.90;;;;;;;23.51;54.18;100071.35;88172;284;137632;-72
2023/09/14 08:27:52;;;;;;;11.40;6.60;;;;;;;23.56;54.45;100069.59;88350;285;22603;-75
2023/09/14 08:29:54;;;;;;;10.00;7.10;;;;;;;23.62;54.38;100069.60;88244;282;136533;-71
2023/09/14 08:31:56;;;;;;;14.60;6.50;;;;;;;23.67;54.07;100071.95;88461;282;25171;-75
2023/09/14 08:33:58;;;;;;;8.90;7.30;;;;;;;23.69;53.89;100074.34;88516;281;135678;-73
2023/09/14 08:36:00;;;;;;;10.50;6.90;;;;;;;23.72;53.92;100074.55;88329;275;22537;-72
2023/09/14 08:38:03;;;;;;;8.80;7.20;;;;;;;23.78;54.01;100073.48;88087;278;135965;-71
2023/09/14 08:40:09;;;;;;;10.40;7.00;;;;;;;23.84;53.79;100076.98;88112;278;136307;-72
2023/09/14 08:42:10;;;;;;;8.70;7.30;;;;;;;23.91;53.64;100078.75;88176;278;22534;-72
2023/09/14 08:44:14;;;;;;;8.70;6.90;;;;;;;24.00;53.71;100079.72;88177;278;136903;-73
2023/09/14 08:46:18;;;;;;;7.80;6.60;;;;;;;24.07;53.52;100083.52;88300;282;22683;-73
2023/09/14 08:48:23;;;;;;;11.50;6.80;;;;;;;24.12;53.36;100084.30;88564;285;136441;-69
2023/09/14 08:50:34;;;;;;;8.30;6.10;;;;;;;24.18;53.30;100084.20;88251;278;22564;-72
2023/09/14 08:52:38;;;;;;;12.40;6.40;;;;;;;24.24;53.17;100080.06;88182;278;135824;-71
2023/09/14 08:54:41;;;;;;;10.50;6.60;;;;;;;24.33;53.08;100080.70;88387;282;24144;-70
2023/09/14 08:56:43;;;;;;;6.50;5.90;;;;;;;24.43;52.69;100077.71;88265;286;136094;-72
2023/09/14 08:58:46;;;;;;;6.30;5.60;;;;;;;24.52;52.73;100077.42;88275;279;22528;-69
2023/09/14 09:00:48;;;;;;;6.60;5.60;;;;;;;24.58;52.22;100079.02;88253;278;135711;-77
2023/09/14 09:02:53;;;;;;;11.10;5.90;;;;;;;24.57;52.11;100074.34;88258;277;24399;-73
2023/09/14 09:04:55;;;;;;;6.20;5.50;;;;;;;24.51;52.51;100070.99;88218;281;136277;-73
2023/09/14 09:06:59;;;;;;;7.40;5.60;;;;;;;24.47;52.73;100075.92;88336;278;25286;-72
2023/09/14 09:09:02;;;;;;;9.10;5.10;;;;;;;24.48;53.09;100074.23;88320;278;136053;-69
2023/09/14 09:11:05;;;;;;;7.70;6.10;;;;;;;24.56;52.90;100079.73;88305;278;22548;-73
2023/09/14 09:13:06;;;;;;;6.40;5.00;;;;;;;24.67;52.54;100076.73;88192;278;136023;-73
2023/09/14 09:15:09;;;;;;;11.90;6.50;;;;;;;24.76;52.37;100078.21;88340;278;22584;-72
2023/09/14 09:17:11;;;;;;;9.50;6.10;;;;;;;24.83;52.21;100079.77;88218;285;135954;-72
2023/09/14 09:19:15;;;;;;;11.10;6.20;;;;;;;24.86;52.00;100074.63;89128;282;22611;-72
2023/09/14 09:21:30;;;;;;;;;;;;;;;24.89;52.04;100069.46;89015;285;136394;-75
2023/09/14 09:23:35;;;;;;;7.70;6.30;;;;;;;24.92;52.04;100068.83;89000;276;22413;-67
2023/09/14 09:25:45;;;;;;;8.50;5.90;;;;;;;24.93;51.95;100066.80;89125;283;135900;-73
2023/09/14 09:27:56;;;;;;;12.50;6.40;;;;;;;24.95;52.18;100069.05;88673;278;22561;-72
2023/09/14 09:29:58;;;;;;;8.70;6.40;;;;;;;25.00;52.10;100066.16;88165;282;135594;-72